createdAt,value
2022-10-17T00:01:14.298Z,0.70
2022-10-17T00:06:17.501Z,0.70
2022-10-17T00:11:23.925Z,0.80
2022-10-17T00:16:29.059Z,0.60
2022-10-17T00:21:32.405Z,0.70
2022-10-17T00:26:36.876Z,0.70
2022-10-17T00:31:40.004Z,0.70
2022-10-17T00:36:43.063Z,0.53
2022-10-17T00:41:47.441Z,0.60
2022-10-17T00:46:50.481Z,0.60
2022-10-17T00:51:58.022Z,0.60
2022-10-17T00:57:02.618Z,0.50
2022-10-17T01:02:08.341Z,0.63
2022-10-17T01:07:11.756Z,0.50
2022-10-17T01:12:21.545Z,0.57
2022-10-17T01:17:31.073Z,0.70
2022-10-17T01:22:41.223Z,0.67
2022-10-17T01:28:02.191Z,0.50
2022-10-17T01:33:11.234Z,0.70
2022-10-17T01:38:19.873Z,0.70
2022-10-17T01:43:29.902Z,0.50
2022-10-17T01:48:43.061Z,0.70
2022-10-17T01:53:51.079Z,0.57
2022-10-17T01:58:58.599Z,0.70
2022-10-17T02:04:04.730Z,0.60
2022-10-17T02:09:22.384Z,0.70
2022-10-17T02:14:37.438Z,0.70
2022-10-17T02:19:51.219Z,0.67
2022-10-17T02:25:01.637Z,0.90
2022-10-17T02:30:11.799Z,0.70
2022-10-17T02:35:18.866Z,0.83
2022-10-17T02:40:25.437Z,0.87
2022-10-17T02:45:35.800Z,0.80
2022-10-17T02:50:52.371Z,0.90
2022-10-17T02:56:01.133Z,1.10
2022-10-17T03:01:08.886Z,0.83
2022-10-17T03:06:13.467Z,0.90
2022-10-17T03:11:16.538Z,1.10
2022-10-17T03:16:19.969Z,0.70
2022-10-17T03:21:24.594Z,0.77
2022-10-17T03:26:29.542Z,0.80
2022-10-17T03:31:33.779Z,0.70
2022-10-17T03:36:39.224Z,0.60
2022-10-17T03:41:42.624Z,0.63
2022-10-17T03:46:45.630Z,0.50
2022-10-17T03:51:50.239Z,0.60
2022-10-17T03:56:54.634Z,0.90
2022-10-17T04:01:58.644Z,0.80
2022-10-17T04:07:03.085Z,0.73
2022-10-17T04:12:06.651Z,0.90
2022-10-17T04:17:12.194Z,0.80
2022-10-17T04:22:16.841Z,0.50
2022-10-17T04:27:20.003Z,0.77
2022-10-17T04:32:24.441Z,0.60
2022-10-17T04:37:35.403Z,0.70
2022-10-17T04:42:44.893Z,0.67
2022-10-17T04:47:51.391Z,0.70
2022-10-17T04:52:55.852Z,0.60
2022-10-17T04:57:58.873Z,0.40
2022-10-17T05:03:01.965Z,0.80
2022-10-17T05:08:07.821Z,0.90
2022-10-17T05:13:11.293Z,0.60
2022-10-17T05:18:14.405Z,0.70
2022-10-17T05:23:21.249Z,0.70
2022-10-17T05:28:26.578Z,0.83
2022-10-17T05:33:34.313Z,0.80
2022-10-17T05:38:38.784Z,0.70
2022-10-17T05:43:42.432Z,0.77
2022-10-17T05:48:47.138Z,1.00
2022-10-17T05:53:51.446Z,0.97
2022-10-17T05:59:01.023Z,1.00
2022-10-17T06:04:18.943Z,1.23
2022-10-17T06:09:24.956Z,1.10
2022-10-17T06:14:30.531Z,1.17
2022-10-17T06:19:38.015Z,0.97
2022-10-17T06:24:42.484Z,1.23
2022-10-17T06:29:45.475Z,1.00
2022-10-17T06:34:48.430Z,1.20
2022-10-17T06:39:53.168Z,1.20
2022-10-17T06:44:58.559Z,1.00
2022-10-17T06:50:20.144Z,1.10
2022-10-17T06:55:43.051Z,1.20
2022-10-17T07:01:10.331Z,1.10
2022-10-17T07:06:13.953Z,1.30
2022-10-17T07:11:21.734Z,1.10
2022-10-17T07:16:27.713Z,1.20
2022-10-17T07:21:39.921Z,1.17
2022-10-17T07:26:46.938Z,1.23
2022-10-17T07:31:51.961Z,1.47
2022-10-17T07:36:55.149Z,1.20
2022-10-17T07:42:00.545Z,1.33
2022-10-17T07:47:04.269Z,1.13
2022-10-17T07:52:07.577Z,1.53
2022-10-17T07:57:11.982Z,1.20
2022-10-17T08:02:22.469Z,1.40
2022-10-17T08:07:29.263Z,1.88
2022-10-17T08:12:34.456Z,1.40
2022-10-17T08:17:38.927Z,1.25
2022-10-17T08:22:41.969Z,1.40
2022-10-17T08:27:46.264Z,1.30
2022-10-17T08:32:49.271Z,1.70
2022-10-17T08:37:52.235Z,1.30
2022-10-17T08:43:21.699Z,1.58
2022-10-17T08:48:26.787Z,1.35
2022-10-17T08:53:36.230Z,1.60
2022-10-17T08:58:40.812Z,1.27
2022-10-17T09:04:00.649Z,1.40
2022-10-17T09:09:21.633Z,1.40
2022-10-17T09:14:45.534Z,1.50
2022-10-17T09:19:58.523Z,1.27
2022-10-17T09:25:07.028Z,1.40
2022-10-17T09:30:46.215Z,1.38
2022-10-17T09:35:50.280Z,1.50
2022-10-17T09:40:57.200Z,1.30
2022-10-17T09:46:07.216Z,1.40
2022-10-17T09:51:21.780Z,1.58
2022-10-17T09:56:28.587Z,1.60
2022-10-17T10:01:34.802Z,1.45
2022-10-17T10:06:38.421Z,1.40
2022-10-17T10:11:49.891Z,1.40
2022-10-17T10:16:54.687Z,1.50
2022-10-17T10:21:59.611Z,1.20
2022-10-17T10:27:05.878Z,1.70
2022-10-17T10:32:13.015Z,1.60
2022-10-17T10:37:22.632Z,1.50
2022-10-17T10:42:29.217Z,1.50
2022-10-17T10:47:34.436Z,1.40
2022-10-17T10:52:44.767Z,1.70
2022-10-17T10:57:51.016Z,1.60
2022-10-17T11:03:02.296Z,1.33
2022-10-17T11:08:13.328Z,1.40
2022-10-17T11:13:20.844Z,1.30
2022-10-17T11:18:29.688Z,1.35
2022-10-17T11:23:41.155Z,1.40
2022-10-17T11:28:44.143Z,1.30
2022-10-17T11:33:53.173Z,1.20
2022-10-17T11:39:00.880Z,1.13
2022-10-17T11:44:12.983Z,1.60
2022-10-17T11:49:24.025Z,1.30
2022-10-17T11:54:32.806Z,1.52
2022-10-17T12:00:00.385Z,1.90
2022-10-17T12:05:13.716Z,1.52
2022-10-17T12:10:26.191Z,1.42
2022-10-17T12:15:31.301Z,1.40
2022-10-17T12:20:37.606Z,1.40
2022-10-17T12:25:52.490Z,1.40
2022-10-17T12:31:01.070Z,1.50
2022-10-17T12:36:46.832Z,1.30
2022-10-17T12:41:57.351Z,1.40
2022-10-17T12:47:30.480Z,1.30
2022-10-17T12:52:59.352Z,1.35
2022-10-17T12:58:04.919Z,1.50
2022-10-17T13:03:15.496Z,1.20
2022-10-17T13:08:22.999Z,1.50
2022-10-17T13:13:36.260Z,1.25
2022-10-17T13:18:40.837Z,1.75
2022-10-17T13:23:43.818Z,1.35
2022-10-17T13:28:47.561Z,1.27
2022-10-17T13:33:57.535Z,1.20
2022-10-17T13:39:06.918Z,1.25
2022-10-17T13:44:15.476Z,1.27
2022-10-17T13:49:25.799Z,1.38
2022-10-17T13:54:36.903Z,1.73
2022-10-17T13:59:42.044Z,1.52
2022-10-17T14:10:20.301Z,1.40
2022-10-17T14:15:26.495Z,1.30
2022-10-17T14:26:06.500Z,1.10
2022-10-17T14:31:30.846Z,1.20
2022-10-17T14:36:42.005Z,1.20
2022-10-17T14:41:46.513Z,1.20
2022-10-17T14:46:53.197Z,1.40
2022-10-17T14:52:29.542Z,1.27
2022-10-17T14:57:43.820Z,1.23
2022-10-17T15:02:47.600Z,1.20
2022-10-17T15:07:53.006Z,1.13
2022-10-17T15:12:59.121Z,1.17
2022-10-17T16:00:21.327Z,1.23
2022-10-17T16:05:26.528Z,1.00
2022-10-17T16:10:29.663Z,1.10
2022-10-17T16:15:34.272Z,1.00
2022-10-17T16:20:37.480Z,1.08
2022-10-17T16:25:41.012Z,1.30
2022-10-17T16:30:46.391Z,1.00
2022-10-17T16:35:49.788Z,1.20
2022-10-17T16:40:52.716Z,0.80
2022-10-17T16:45:57.068Z,0.88
2022-10-17T16:51:00.054Z,1.10
2022-10-17T16:56:03.870Z,1.10
2022-10-17T17:01:10.597Z,1.00
2022-10-17T17:06:15.319Z,0.90
2022-10-17T17:11:19.849Z,0.90
2022-10-17T17:16:25.518Z,1.20
2022-10-17T17:21:29.035Z,1.25
2022-10-17T17:26:35.827Z,0.88
2022-10-17T17:31:40.204Z,1.13
2022-10-17T17:36:54.330Z,1.33
2022-10-17T17:41:57.306Z,1.45
2022-10-17T17:47:02.134Z,1.20
2022-10-17T17:52:05.812Z,1.30
2022-10-17T17:57:09.022Z,1.25
2022-10-17T18:02:13.650Z,1.10
2022-10-17T18:07:16.699Z,0.90
2022-10-17T18:12:19.650Z,1.17
2022-10-17T18:17:24.620Z,1.20
2022-10-17T18:22:28.069Z,1.20
2022-10-17T18:27:31.399Z,1.60
2022-10-17T18:32:35.856Z,1.33
2022-10-17T18:37:38.996Z,1.50
2022-10-17T18:42:43.682Z,1.58
2022-10-17T18:47:48.145Z,1.65
2022-10-17T18:52:51.343Z,1.38
2022-10-17T18:57:54.475Z,1.05
2022-10-17T19:02:58.983Z,1.20
2022-10-17T19:08:01.920Z,1.50
2022-10-17T19:13:05.150Z,1.30
2022-10-17T19:18:09.538Z,1.40
2022-10-17T19:23:12.498Z,1.10
2022-10-17T19:28:15.499Z,1.13
2022-10-17T19:33:19.934Z,1.30
2022-10-17T19:38:22.984Z,1.20
2022-10-17T19:43:26.087Z,1.17
2022-10-17T19:48:32.902Z,1.30
2022-10-17T19:53:36.509Z,1.25
2022-10-17T19:58:45.345Z,1.20
2022-10-17T20:03:50.188Z,1.20
2022-10-17T20:08:53.396Z,1.17
2022-10-17T20:13:57.174Z,1.65
2022-10-17T20:19:12.651Z,1.15
2022-10-17T20:24:17.551Z,1.10
2022-10-17T20:29:23.941Z,1.20
2022-10-17T20:34:28.560Z,2.08
2022-10-17T20:39:31.493Z,1.45
2022-10-17T20:44:34.481Z,1.33
2022-10-17T20:49:38.771Z,1.42
2022-10-17T20:54:41.828Z,1.38
2022-10-17T20:59:45.857Z,1.33
2022-10-17T21:04:50.163Z,1.02
2022-10-17T21:09:53.579Z,0.98
2022-10-17T21:14:56.545Z,1.20
2022-10-17T21:20:01.113Z,1.53
2022-10-17T21:25:04.229Z,1.53
2022-10-17T21:35:12.505Z,1.50
2022-10-17T21:40:15.614Z,1.30
2022-10-17T21:45:25.413Z,1.90
2022-10-17T21:50:30.001Z,1.40
2022-10-17T21:55:32.932Z,1.90
2022-10-17T22:00:35.899Z,1.60
2022-10-17T22:05:40.247Z,1.90
2022-10-17T22:10:43.160Z,1.80
2022-10-17T22:15:46.131Z,1.30
2022-10-17T22:20:50.429Z,1.40
2022-10-17T22:25:57.112Z,1.50
2022-10-17T22:31:00.124Z,1.30
2022-10-17T22:36:04.726Z,1.30
2022-10-17T22:41:07.934Z,1.40
2022-10-17T22:46:13.235Z,1.20
2022-10-17T22:51:17.745Z,1.43
2022-10-17T22:56:22.876Z,1.10
2022-10-17T23:01:26.749Z,1.20
2022-10-17T23:06:31.124Z,1.27
2022-10-17T23:11:34.060Z,1.17
2022-10-17T23:16:36.951Z,1.30
2022-10-17T23:21:41.219Z,1.30
2022-10-17T23:26:44.156Z,1.30
2022-10-17T23:31:47.243Z,1.20
2022-10-17T23:36:52.758Z,1.30
2022-10-17T23:41:55.700Z,1.10
2022-10-17T23:46:58.608Z,1.20
2022-10-17T23:52:02.936Z,1.80
2022-10-17T23:57:05.870Z,1.40
